sensor_id;sensor_type;location;lat;lon;timestamp;pressure;altitude;pressure_sealevel;temperature;humidity
54816;BME280;40715;55.752;37.884;2023-05-22T00:01:13;99690.13;;;33.74;26.38
54816;BME280;40715;55.752;37.884;2023-05-22T00:03:45;99674.66;;;33.66;26.34
54816;BME280;40715;55.752;37.884;2023-05-22T00:06:12;99695.44;;;33.76;26.22
54816;BME280;40715;55.752;37.884;2023-05-22T00:08:40;99677.38;;;33.66;26.26
54816;BME280;40715;55.752;37.884;2023-05-22T00:11:07;99692.69;;;33.76;26.17
54816;BME280;40715;55.752;37.884;2023-05-22T00:13:34;99684.84;;;33.72;26.33
54816;BME280;40715;55.752;37.884;2023-05-22T00:16:02;99704.13;;;33.79;25.99
54816;BME280;40715;55.752;37.884;2023-05-22T00:18:29;99686.69;;;33.72;26.36
54816;BME280;40715;55.752;37.884;2023-05-22T00:20:56;99675.63;;;33.74;26.31
54816;BME280;40715;55.752;37.884;2023-05-22T00:23:24;99698.94;;;33.84;26.49
54816;BME280;40715;55.752;37.884;2023-05-22T00:25:53;99688.19;;;33.83;26.15
54816;BME280;40715;55.752;37.884;2023-05-22T00:28:20;99681.16;;;33.65;26.44
54816;BME280;40715;55.752;37.884;2023-05-22T00:30:47;99688.13;;;33.68;26.82
54816;BME280;40715;55.752;37.884;2023-05-22T00:33:14;99685.34;;;33.76;26.50
54816;BME280;40715;55.752;37.884;2023-05-22T00:35:42;99690.47;;;33.79;26.25
54816;BME280;40715;55.752;37.884;2023-05-22T00:38:26;99681.97;;;33.89;26.31
54816;BME280;40715;55.752;37.884;2023-05-22T00:40:54;99689.59;;;33.79;26.27
54816;BME280;40715;55.752;37.884;2023-05-22T00:43:21;99696.25;;;33.76;26.55
54816;BME280;40715;55.752;37.884;2023-05-22T00:45:48;99677.03;;;33.69;26.30
54816;BME280;40715;55.752;37.884;2023-05-22T00:48:15;99679.19;;;33.74;26.42
54816;BME280;40715;55.752;37.884;2023-05-22T00:50:42;99685.84;;;33.80;26.62
54816;BME280;40715;55.752;37.884;2023-05-22T00:53:10;99684.81;;;33.81;26.29
54816;BME280;40715;55.752;37.884;2023-05-22T00:55:37;99683.75;;;33.82;26.50
54816;BME280;40715;55.752;37.884;2023-05-22T00:58:05;99680.94;;;33.75;26.56
54816;BME280;40715;55.752;37.884;2023-05-22T01:00:35;99682.59;;;33.76;26.67
54816;BME280;40715;55.752;37.884;2023-05-22T01:03:04;99686.22;;;33.77;26.67
54816;BME280;40715;55.752;37.884;2023-05-22T01:05:34;99681.09;;;33.74;26.73
54816;BME280;40715;55.752;37.884;2023-05-22T01:08:02;99685.34;;;33.76;26.92
54816;BME280;40715;55.752;37.884;2023-05-22T01:10:31;99689.97;;;33.76;26.71
54816;BME280;40715;55.752;37.884;2023-05-22T01:16:16;99691.25;;;33.88;26.73
54816;BME280;40715;55.752;37.884;2023-05-22T01:19:23;99692.25;;;33.87;26.73
54816;BME280;40715;55.752;37.884;2023-05-22T01:25:15;99694.41;;;33.77;26.86
54816;BME280;40715;55.752;37.884;2023-05-22T01:28:21;99695.75;;;33.96;26.67
54816;BME280;40715;55.752;37.884;2023-05-22T01:31:04;99693.53;;;33.76;26.54
54816;BME280;40715;55.752;37.884;2023-05-22T01:33:56;99706.94;;;33.86;26.61
54816;BME280;40715;55.752;37.884;2023-05-22T01:36:35;99705.16;;;33.78;26.50
54816;BME280;40715;55.752;37.884;2023-05-22T01:39:03;99695.63;;;33.66;26.79
54816;BME280;40715;55.752;37.884;2023-05-22T01:41:33;99702.63;;;33.68;26.76
54816;BME280;40715;55.752;37.884;2023-05-22T01:44:01;99665.56;;;33.51;26.68
54816;BME280;40715;55.752;37.884;2023-05-22T01:46:29;99692.16;;;33.72;27.02
54816;BME280;40715;55.752;37.884;2023-05-22T01:48:57;99697.16;;;33.68;26.90
54816;BME280;40715;55.752;37.884;2023-05-22T01:51:49;99703.78;;;33.74;26.94
54816;BME280;40715;55.752;37.884;2023-05-22T01:54:50;99693.34;;;33.78;26.72
54816;BME280;40715;55.752;37.884;2023-05-22T01:57:45;99712.84;;;33.98;26.61
54816;BME280;40715;55.752;37.884;2023-05-22T02:00:14;99713.72;;;33.75;26.70
54816;BME280;40715;55.752;37.884;2023-05-22T02:02:47;99715.09;;;33.71;26.70
54816;BME280;40715;55.752;37.884;2023-05-22T02:05:15;99705.19;;;33.70;26.83
54816;BME280;40715;55.752;37.884;2023-05-22T02:07:44;99716.75;;;33.72;26.71
54816;BME280;40715;55.752;37.884;2023-05-22T02:10:14;99701.47;;;33.63;26.95
54816;BME280;40715;55.752;37.884;2023-05-22T02:12:42;99683.81;;;33.50;26.85
54816;BME280;40715;55.752;37.884;2023-05-22T02:15:10;99721.25;;;33.65;27.16
54816;BME280;40715;55.752;37.884;2023-05-22T02:17:38;99715.78;;;33.65;26.77
54816;BME280;40715;55.752;37.884;2023-05-22T02:20:10;99722.13;;;33.65;26.77
54816;BME280;40715;55.752;37.884;2023-05-22T02:22:45;99720.59;;;33.63;27.05
54816;BME280;40715;55.752;37.884;2023-05-22T02:25:14;99743.25;;;33.71;26.77
54816;BME280;40715;55.752;37.884;2023-05-22T02:27:45;99744.63;;;33.67;26.82
54816;BME280;40715;55.752;37.884;2023-05-22T02:30:13;99731.34;;;33.64;26.92
54816;BME280;40715;55.752;37.884;2023-05-22T02:32:41;99747.38;;;33.67;26.88
54816;BME280;40715;55.752;37.884;2023-05-22T02:35:08;99740.03;;;33.68;27.03
54816;BME280;40715;55.752;37.884;2023-05-22T02:37:36;99737.97;;;33.70;26.91
54816;BME280;40715;55.752;37.884;2023-05-22T02:40:03;99729.94;;;33.68;26.79
54816;BME280;40715;55.752;37.884;2023-05-22T02:42:33;99705.47;;;33.52;26.67
54816;BME280;40715;55.752;37.884;2023-05-22T02:45:01;99724.84;;;33.65;26.91
54816;BME280;40715;55.752;37.884;2023-05-22T02:47:34;99728.56;;;33.72;27.00
54816;BME280;40715;55.752;37.884;2023-05-22T02:50:01;99739.28;;;33.74;27.02
54816;BME280;40715;55.752;37.884;2023-05-22T02:52:31;99736.06;;;33.70;26.74
54816;BME280;40715;55.752;37.884;2023-05-22T02:54:58;99739.16;;;33.76;26.82
54816;BME280;40715;55.752;37.884;2023-05-22T02:57:25;99741.03;;;33.75;26.68
54816;BME280;40715;55.752;37.884;2023-05-22T02:59:52;99709.91;;;33.53;26.96
54816;BME280;40715;55.752;37.884;2023-05-22T03:02:19;99738.63;;;33.72;26.90
54816;BME280;40715;55.752;37.884;2023-05-22T03:04:47;99741.69;;;33.77;26.93
54816;BME280;40715;55.752;37.884;2023-05-22T03:07:14;99740.84;;;33.77;26.98
54816;BME280;40715;55.752;37.884;2023-05-22T03:09:41;99730.59;;;33.70;27.19
54816;BME280;40715;55.752;37.884;2023-05-22T03:12:08;99746.13;;;33.78;27.16
54816;BME280;40715;55.752;37.884;2023-05-22T03:14:35;99744.25;;;33.79;27.55
54816;BME280;40715;55.752;37.884;2023-05-22T03:17:02;99756.69;;;33.81;27.58
54816;BME280;40715;55.752;37.884;2023-05-22T03:19:30;99745.44;;;33.76;27.38
54816;BME280;40715;55.752;37.884;2023-05-22T03:21:57;99749.53;;;33.80;27.55
54816;BME280;40715;55.752;37.884;2023-05-22T03:24:24;99754.84;;;33.74;27.43
54816;BME280;40715;55.752;37.884;2023-05-22T03:26:52;99739.16;;;33.67;27.45
54816;BME280;40715;55.752;37.884;2023-05-22T03:29:19;99751.78;;;33.77;27.46
54816;BME280;40715;55.752;37.884;2023-05-22T03:31:47;99747.34;;;33.76;27.07
54816;BME280;40715;55.752;37.884;2023-05-22T03:34:14;99737.78;;;33.71;27.35
54816;BME280;40715;55.752;37.884;2023-05-22T03:36:42;99752.13;;;33.74;27.07
54816;BME280;40715;55.752;37.884;2023-05-22T03:39:11;99741.53;;;33.70;27.23
54816;BME280;40715;55.752;37.884;2023-05-22T03:41:38;99754.69;;;33.75;27.30
54816;BME280;40715;55.752;37.884;2023-05-22T03:44:05;99751.78;;;33.77;27.36
54816;BME280;40715;55.752;37.884;2023-05-22T03:46:32;99730.00;;;33.60;27.11
54816;BME280;40715;55.752;37.884;2023-05-22T03:48:59;99758.94;;;33.78;27.42
54816;BME280;40715;55.752;37.884;2023-05-22T03:51:26;99737.31;;;33.68;27.20
54816;BME280;40715;55.752;37.884;2023-05-22T03:53:53;99750.72;;;33.78;27.39
54816;BME280;40715;55.752;37.884;2023-05-22T03:56:21;99760.63;;;33.79;27.07
54816;BME280;40715;55.752;37.884;2023-05-22T03:58:48;99748.88;;;33.78;27.29
54816;BME280;40715;55.752;37.884;2023-05-22T04:01:16;99758.78;;;33.79;27.22
54816;BME280;40715;55.752;37.884;2023-05-22T04:03:43;99766.97;;;33.79;27.52
54816;BME280;40715;55.752;37.884;2023-05-22T04:06:11;99761.31;;;33.81;27.57
54816;BME280;40715;55.752;37.884;2023-05-22T04:08:39;99743.25;;;33.71;27.26
54816;BME280;40715;55.752;37.884;2023-05-22T04:11:09;99755.34;;;33.77;27.19
54816;BME280;40715;55.752;37.884;2023-05-22T04:13:36;99751.41;;;33.80;27.20
54816;BME280;40715;55.752;37.884;2023-05-22T04:16:04;99755.16;;;33.79;27.50
54816;BME280;40715;55.752;37.884;2023-05-22T04:18:31;99751.78;;;33.77;27.23
54816;BME280;40715;55.752;37.884;2023-05-22T04:20:58;99745.59;;;33.75;27.18
54816;BME280;40715;55.752;37.884;2023-05-22T04:23:25;99746.13;;;33.78;27.12
54816;BME280;40715;55.752;37.884;2023-05-22T04:25:52;99740.31;;;33.73;27.46
54816;BME280;40715;55.752;37.884;2023-05-22T04:28:22;99753.47;;;33.78;27.14
54816;BME280;40715;55.752;37.884;2023-05-22T04:30:50;99743.06;;;33.73;27.22
54816;BME280;40715;55.752;37.884;2023-05-22T04:33:17;99733.34;;;33.70;27.10
54816;BME280;40715;55.752;37.884;2023-05-22T04:35:44;99728.06;;;33.69;27.28
54816;BME280;40715;55.752;37.884;2023-05-22T04:38:11;99741.03;;;33.75;27.33
54816;BME280;40715;55.752;37.884;2023-05-22T04:40:38;99733.84;;;33.74;27.24
54816;BME280;40715;55.752;37.884;2023-05-22T04:43:06;99735.38;;;33.77;27.13
54816;BME280;40715;55.752;37.884;2023-05-22T04:45:33;99736.03;;;33.79;26.95
54816;BME280;40715;55.752;37.884;2023-05-22T04:48:01;99742.88;;;33.75;27.00
54816;BME280;40715;55.752;37.884;2023-05-22T04:50:28;99738.47;;;33.74;27.26
54816;BME280;40715;55.752;37.884;2023-05-22T04:52:59;99747.34;;;33.76;27.17
54816;BME280;40715;55.752;37.884;2023-05-22T04:55:26;99740.28;;;33.81;26.81
54816;BME280;40715;55.752;37.884;2023-05-22T04:57:53;99730.25;;;33.74;26.95
54816;BME280;40715;55.752;37.884;2023-05-22T05:00:22;99742.41;;;33.71;26.89
54816;BME280;40715;55.752;37.884;2023-05-22T05:02:52;99742.78;;;33.68;27.23
54816;BME280;40715;55.752;37.884;2023-05-22T05:05:19;99739.47;;;33.72;26.84
54816;BME280;40715;55.752;37.884;2023-05-22T05:07:48;99752.28;;;33.72;27.03
54816;BME280;40715;55.752;37.884;2023-05-22T05:10:16;99756.91;;;33.71;27.07
54816;BME280;40715;55.752;37.884;2023-05-22T05:12:44;99758.78;;;33.71;27.15
54816;BME280;40715;55.752;37.884;2023-05-22T05:15:11;99754.22;;;33.63;27.11
54816;BME280;40715;55.752;37.884;2023-05-22T05:17:38;99748.41;;;33.66;27.23
54816;BME280;40715;55.752;37.884;2023-05-22T05:20:06;99757.44;;;33.75;27.32
54816;BME280;40715;55.752;37.884;2023-05-22T05:22:34;99744.25;;;33.70;27.09
54816;BME280;40715;55.752;37.884;2023-05-22T05:25:01;99744.94;;;33.72;27.27
54816;BME280;40715;55.752;37.884;2023-05-22T05:27:31;99734.06;;;33.64;27.11
54816;BME280;40715;55.752;37.884;2023-05-22T05:29:58;99751.16;;;33.66;27.10
54816;BME280;40715;55.752;37.884;2023-05-22T05:32:26;99756.25;;;33.69;27.40
54816;BME280;40715;55.752;37.884;2023-05-22T05:34:53;99767.47;;;33.75;27.28
54816;BME280;40715;55.752;37.884;2023-05-22T05:37:21;99764.91;;;33.73;27.31
54816;BME280;40715;55.752;37.884;2023-05-22T05:39:48;99764.06;;;33.72;27.24
54816;BME280;40715;55.752;37.884;2023-05-22T05:42:15;99716.38;;;33.52;27.20
54816;BME280;40715;55.752;37.884;2023-05-22T05:44:43;99761.00;;;33.76;27.40
54816;BME280;40715;55.752;37.884;2023-05-22T05:47:10;99757.44;;;33.75;27.43
54816;BME280;40715;55.752;37.884;2023-05-22T05:49:38;99751.97;;;33.67;27.33
54816;BME280;40715;55.752;37.884;2023-05-22T05:52:05;99758.28;;;33.76;27.21
54816;BME280;40715;55.752;37.884;2023-05-22T05:54:34;99760.44;;;33.80;27.62
54816;BME280;40715;55.752;37.884;2023-05-22T05:57:01;99763.88;;;33.82;27.61
54816;BME280;40715;55.752;37.884;2023-05-22T05:59:28;99774.91;;;33.89;27.63
54816;BME280;40715;55.752;37.884;2023-05-22T06:01:57;99784.25;;;33.95;27.63
54816;BME280;40715;55.752;37.884;2023-05-22T06:04:24;99782.84;;;33.99;27.35
54816;BME280;40715;55.752;37.884;2023-05-22T06:06:53;99795.13;;;34.03;27.27
54816;BME280;40715;55.752;37.884;2023-05-22T06:09:21;99791.84;;;34.08;27.17
54816;BME280;40715;55.752;37.884;2023-05-22T06:11:48;99782.41;;;34.10;27.15
54816;BME280;40715;55.752;37.884;2023-05-22T06:14:15;99757.63;;;34.12;27.03
54816;BME280;40715;55.752;37.884;2023-05-22T06:16:42;99777.44;;;34.14;26.88
54816;BME280;40715;55.752;37.884;2023-05-22T06:19:09;99766.38;;;34.07;26.79
54816;BME280;40715;55.752;37.884;2023-05-22T06:21:36;99787.16;;;34.16;27.11
54816;BME280;40715;55.752;37.884;2023-05-22T06:24:03;99775.19;;;34.17;26.98
54816;BME280;40715;55.752;37.884;2023-05-22T06:26:31;99786.13;;;34.17;27.04
54816;BME280;40715;55.752;37.884;2023-05-22T06:28:58;99790.38;;;34.20;27.10
54816;BME280;40715;55.752;37.884;2023-05-22T06:31:25;99769.34;;;34.20;26.93
54816;BME280;40715;55.752;37.884;2023-05-22T06:33:53;99781.97;;;34.21;26.96
54816;BME280;40715;55.752;37.884;2023-05-22T06:36:21;99802.84;;;34.22;27.09
54816;BME280;40715;55.752;37.884;2023-05-22T06:38:48;99809.31;;;34.21;27.26
54816;BME280;40715;55.752;37.884;2023-05-22T06:41:15;99805.56;;;34.22;26.97
54816;BME280;40715;55.752;37.884;2023-05-22T06:43:42;99797.38;;;34.22;27.21
54816;BME280;40715;55.752;37.884;2023-05-22T06:46:09;99794.63;;;34.22;27.37
54816;BME280;40715;55.752;37.884;2023-05-22T06:48:36;99788.13;;;34.23;27.15
54816;BME280;40715;55.752;37.884;2023-05-22T06:51:03;99770.03;;;34.22;27.38
54816;BME280;40715;55.752;37.884;2023-05-22T06:53:30;99770.03;;;34.22;27.16
54816;BME280;40715;55.752;37.884;2023-05-22T06:55:57;99756.53;;;34.21;27.12
54816;BME280;40715;55.752;37.884;2023-05-22T06:58:24;99768.50;;;34.20;27.04
54816;BME280;40715;55.752;37.884;2023-05-22T07:00:52;99762.84;;;34.21;27.17
54816;BME280;40715;55.752;37.884;2023-05-22T07:03:21;99753.13;;;34.19;27.06
54816;BME280;40715;55.752;37.884;2023-05-22T07:05:48;99759.28;;;34.21;27.05
54816;BME280;40715;55.752;37.884;2023-05-22T07:08:16;99755.84;;;34.19;27.05
54816;BME280;40715;55.752;37.884;2023-05-22T07:10:43;99756.53;;;34.21;27.16
54816;BME280;40715;55.752;37.884;2023-05-22T07:13:10;99745.59;;;34.21;27.06
54816;BME280;40715;55.752;37.884;2023-05-22T07:15:38;99746.44;;;34.21;26.87
54816;BME280;40715;55.752;37.884;2023-05-22T07:18:05;99740.78;;;34.23;27.15
54816;BME280;40715;55.752;37.884;2023-05-22T07:20:33;99740.78;;;34.23;26.91
54816;BME280;40715;55.752;37.884;2023-05-22T07:23:00;99741.66;;;34.23;26.85
54816;BME280;40715;55.752;37.884;2023-05-22T07:25:27;99743.72;;;34.21;26.93
54816;BME280;40715;55.752;37.884;2023-05-22T07:27:54;99759.09;;;34.22;26.75
54816;BME280;40715;55.752;37.884;2023-05-22T07:30:24;99764.38;;;34.24;26.77
54816;BME280;40715;55.752;37.884;2023-05-22T07:32:51;99767.09;;;34.24;26.96
54816;BME280;40715;55.752;37.884;2023-05-22T07:35:18;99767.94;;;34.24;26.53
54816;BME280;40715;55.752;37.884;2023-05-22T07:37:45;99775.81;;;34.28;26.71
54816;BME280;40715;55.752;37.884;2023-05-22T07:40:13;99774.28;;;34.25;26.84
54816;BME280;40715;55.752;37.884;2023-05-22T07:42:40;99769.31;;;34.29;26.67
54816;BME280;40715;55.752;37.884;2023-05-22T07:45:07;99760.25;;;34.28;26.59
54816;BME280;40715;55.752;37.884;2023-05-22T07:47:35;99762.81;;;34.30;26.40
54816;BME280;40715;55.752;37.884;2023-05-22T07:50:02;99754.06;;;34.26;26.57
54816;BME280;40715;55.752;37.884;2023-05-22T07:52:32;99762.81;;;34.30;26.48
54816;BME280;40715;55.752;37.884;2023-05-22T07:54:59;99753.06;;;34.27;26.46
54816;BME280;40715;55.752;37.884;2023-05-22T07:57:26;99745.75;;;34.28;26.57
54816;BME280;40715;55.752;37.884;2023-05-22T07:59:55;99737.69;;;34.26;26.54
54816;BME280;40715;55.752;37.884;2023-05-22T08:02:22;99741.28;;;34.27;26.54
54816;BME280;40715;55.752;37.884;2023-05-22T08:04:49;99747.59;;;34.27;26.51
54816;BME280;40715;55.752;37.884;2023-05-22T08:07:16;99742.13;;;34.27;26.33
54816;BME280;40715;55.752;37.884;2023-05-22T08:09:43;99747.59;;;34.27;26.53
54816;BME280;40715;55.752;37.884;2023-05-22T08:12:12;99748.50;;;34.28;26.69
54816;BME280;40715;55.752;37.884;2023-05-22T08:14:39;99747.44;;;34.29;26.52
54816;BME280;40715;55.752;37.884;2023-05-22T08:17:06;99752.06;;;34.28;26.16
54816;BME280;40715;55.752;37.884;2023-05-22T08:19:33;99771.84;;;34.30;26.16
54816;BME280;40715;55.752;37.884;2023-05-22T08:22:00;99778.47;;;34.36;26.45
54816;BME280;40715;55.752;37.884;2023-05-22T08:24:27;99769.59;;;34.34;26.42
54816;BME280;40715;55.752;37.884;2023-05-22T08:26:56;99762.75;;;34.38;26.25
54816;BME280;40715;55.752;37.884;2023-05-22T08:29:27;99752.63;;;34.38;26.29
54816;BME280;40715;55.752;37.884;2023-05-22T08:31:55;99750.38;;;34.42;26.22
54816;BME280;40715;55.752;37.884;2023-05-22T08:34:24;99744.06;;;34.42;26.22
54816;BME280;40715;55.752;37.884;2023-05-22T08:36:51;99755.28;;;34.47;26.07
54816;BME280;40715;55.752;37.884;2023-05-22T08:39:18;99756.13;;;34.47;25.94
54816;BME280;40715;55.752;37.884;2023-05-22T08:41:45;99755.94;;;34.49;26.28
54816;BME280;40715;55.752;37.884;2023-05-22T08:44:13;99752.19;;;34.50;26.41
54816;BME280;40715;55.752;37.884;2023-05-22T08:46:40;99745.69;;;34.51;26.28
54816;BME280;40715;55.752;37.884;2023-05-22T08:49:09;99745.88;;;34.49;26.27
54816;BME280;40715;55.752;37.884;2023-05-22T08:51:38;99750.28;;;34.50;26.12
54816;BME280;40715;55.752;37.884;2023-05-22T08:54:05;99754.72;;;34.51;26.34
54816;BME280;40715;55.752;37.884;2023-05-22T08:56:35;99749.44;;;34.50;26.65
54816;BME280;40715;55.752;37.884;2023-05-22T08:59:06;99751.81;;;34.53;26.52
54816;BME280;40715;55.752;37.884;2023-05-22T09:01:33;99749.06;;;34.53;26.80
54816;BME280;40715;55.752;37.884;2023-05-22T09:04:01;99747.00;;;34.55;26.73
54816;BME280;40715;55.752;37.884;2023-05-22T09:06:29;99738.13;;;34.53;26.70
54816;BME280;40715;55.752;37.884;2023-05-22T09:08:58;99741.53;;;34.55;27.00
54816;BME280;40715;55.752;37.884;2023-05-22T09:11:25;99743.22;;;34.56;26.69
54816;BME280;40715;55.752;37.884;2023-05-22T09:13:52;99746.81;;;34.56;26.42
54816;BME280;40715;55.752;37.884;2023-05-22T09:16:31;99736.53;;;34.58;26.39
54816;BME280;40715;55.752;37.884;2023-05-22T09:18:59;99741.34;;;34.56;26.64
54816;BME280;40715;55.752;37.884;2023-05-22T09:21:26;99754.84;;;34.58;26.62
54816;BME280;40715;55.752;37.884;2023-05-22T09:23:59;99760.94;;;34.60;26.91
54816;BME280;40715;55.752;37.884;2023-05-22T09:26:28;99760.56;;;34.63;26.75
54816;BME280;40715;55.752;37.884;2023-05-22T09:28:58;99759.53;;;34.64;26.47
54816;BME280;40715;55.752;37.884;2023-05-22T09:31:27;99755.59;;;34.67;26.70
54816;BME280;40715;55.752;37.884;2023-05-22T09:33:55;99749.94;;;34.68;26.82
54816;BME280;40715;55.752;37.884;2023-05-22T09:36:32;99749.50;;;34.80;26.66
54816;BME280;40715;55.752;37.884;2023-05-22T09:39:00;99751.38;;;34.79;26.78
54816;BME280;40715;55.752;37.884;2023-05-22T09:41:29;99755.44;;;34.83;26.59
54816;BME280;40715;55.752;37.884;2023-05-22T09:43:56;99756.53;;;34.89;26.54
54816;BME280;40715;55.752;37.884;2023-05-22T09:46:25;99753.47;;;34.92;26.63
54816;BME280;40715;55.752;37.884;2023-05-22T09:48:53;99759.00;;;34.99;26.64
54816;BME280;40715;55.752;37.884;2023-05-22T09:51:21;99759.09;;;35.05;26.48
54816;BME280;40715;55.752;37.884;2023-05-22T09:53:59;99753.53;;;35.14;26.40
54816;BME280;40715;55.752;37.884;2023-05-22T09:56:31;99757.78;;;35.16;26.25
54816;BME280;40715;55.752;37.884;2023-05-22T09:59:07;99758.13;;;35.28;26.22
54816;BME280;40715;55.752;37.884;2023-05-22T10:01:37;99752.16;;;35.24;26.41
54816;BME280;40715;55.752;37.884;2023-05-22T10:04:05;99742.47;;;35.22;26.30
54816;BME280;40715;55.752;37.884;2023-05-22T10:06:34;99745.09;;;35.30;26.46
54816;BME280;40715;55.752;37.884;2023-05-22T10:09:06;99745.78;;;35.32;26.29
54816;BME280;40715;55.752;37.884;2023-05-22T10:11:38;99746.59;;;35.33;26.13
54816;BME280;40715;55.752;37.884;2023-05-22T10:14:06;99742.72;;;35.27;26.33
54816;BME280;40715;55.752;37.884;2023-05-22T10:16:34;99744.63;;;35.26;26.14
54816;BME280;40715;55.752;37.884;2023-05-22T10:19:04;99746.03;;;35.22;26.11
54816;BME280;40715;55.752;37.884;2023-05-22T10:21:34;99739.72;;;35.22;26.15
54816;BME280;40715;55.752;37.884;2023-05-22T10:24:03;99738.59;;;35.16;26.09
54816;BME280;40715;55.752;37.884;2023-05-22T10:26:32;99721.88;;;35.11;26.53
54816;BME280;40715;55.752;37.884;2023-05-22T10:29:07;99722.66;;;35.05;26.56
54816;BME280;40715;55.752;37.884;2023-05-22T10:31:54;99725.84;;;35.08;26.40
54816;BME280;40715;55.752;37.884;2023-05-22T10:34:58;99726.13;;;35.14;26.21
54816;BME280;40715;55.752;37.884;2023-05-22T10:37:50;99717.84;;;35.07;26.45
54816;BME280;40715;55.752;37.884;2023-05-22T10:40:22;99723.91;;;34.87;26.80
54816;BME280;40715;55.752;37.884;2023-05-22T10:42:58;99725.16;;;34.85;26.36
54816;BME280;40715;55.752;37.884;2023-05-22T10:45:27;99707.19;;;34.67;26.91
54816;BME280;40715;55.752;37.884;2023-05-22T10:48:10;99721.78;;;34.74;26.78
54816;BME280;40715;55.752;37.884;2023-05-22T10:50:38;99716.06;;;34.69;26.63
54816;BME280;40715;55.752;37.884;2023-05-22T10:53:25;99715.97;;;34.78;26.66
54816;BME280;40715;55.752;37.884;2023-05-22T10:55:56;99707.56;;;34.64;26.65
54816;BME280;40715;55.752;37.884;2023-05-22T10:58:32;99707.31;;;34.59;26.78
54816;BME280;40715;55.752;37.884;2023-05-22T11:01:16;99710.59;;;34.69;26.75
54816;BME280;40715;55.752;37.884;2023-05-22T11:03:53;99704.06;;;34.55;26.95
54816;BME280;40715;55.752;37.884;2023-05-22T11:09:33;99713.22;;;34.63;27.00
54816;BME280;40715;55.752;37.884;2023-05-22T11:12:23;99707.31;;;34.59;27.08
54816;BME280;40715;55.752;37.884;2023-05-22T11:14:57;99704.09;;;34.40;27.32
54816;BME280;40715;55.752;37.884;2023-05-22T11:17:29;99710.78;;;34.38;27.29
54816;BME280;40715;55.752;37.884;2023-05-22T11:22:59;99701.88;;;34.36;27.31
54816;BME280;40715;55.752;37.884;2023-05-22T11:25:27;99703.69;;;34.29;27.55
54816;BME280;40715;55.752;37.884;2023-05-22T11:27:54;99700.75;;;34.30;27.82
54816;BME280;40715;55.752;37.884;2023-05-22T11:30:26;99697.19;;;34.30;27.88
54816;BME280;40715;55.752;37.884;2023-05-22T11:32:57;99685.72;;;34.26;27.79
54816;BME280;40715;55.752;37.884;2023-05-22T11:35:25;99700.94;;;34.29;27.89
54816;BME280;40715;55.752;37.884;2023-05-22T11:37:53;99694.13;;;34.24;27.61
54816;BME280;40715;55.752;37.884;2023-05-22T11:40:21;99687.63;;;34.26;27.81
54816;BME280;40715;55.752;37.884;2023-05-22T11:42:52;99683.69;;;34.28;27.82
54816;BME280;40715;55.752;37.884;2023-05-22T11:45:19;99689.63;;;34.32;27.47
54816;BME280;40715;55.752;37.884;2023-05-22T11:47:47;99680.13;;;34.28;27.76
54816;BME280;40715;55.752;37.884;2023-05-22T11:50:15;99684.53;;;34.29;27.51
54816;BME280;40715;55.752;37.884;2023-05-22T11:52:48;99673.75;;;34.27;27.86
54816;BME280;40715;55.752;37.884;2023-05-22T11:55:15;99670.19;;;34.27;28.02
54816;BME280;40715;55.752;37.884;2023-05-22T11:57:44;99670.56;;;34.23;27.71
54816;BME280;40715;55.752;37.884;2023-05-22T12:00:14;99672.44;;;34.23;27.62
54816;BME280;40715;55.752;37.884;2023-05-22T12:02:44;99671.22;;;34.26;27.52
54816;BME280;40715;55.752;37.884;2023-05-22T12:05:15;99668.47;;;34.26;27.79
54816;BME280;40715;55.752;37.884;2023-05-22T12:07:42;99670.38;;;34.25;27.87
54816;BME280;40715;55.752;37.884;2023-05-22T12:10:10;99665.09;;;34.23;27.74
54816;BME280;40715;55.752;37.884;2023-05-22T12:12:37;99661.50;;;34.23;27.92
54816;BME280;40715;55.752;37.884;2023-05-22T12:15:05;99657.91;;;34.22;27.68
54816;BME280;40715;55.752;37.884;2023-05-22T12:17:35;99652.44;;;34.22;27.78
54816;BME280;40715;55.752;37.884;2023-05-22T12:20:05;99651.63;;;34.22;27.83
54816;BME280;40715;55.752;37.884;2023-05-22T12:22:39;99651.44;;;34.23;27.72
54816;BME280;40715;55.752;37.884;2023-05-22T12:25:13;99643.22;;;34.23;27.98
54816;BME280;40715;55.752;37.884;2023-05-22T12:27:42;99635.38;;;34.20;27.56
54816;BME280;40715;55.752;37.884;2023-05-22T12:30:13;99637.94;;;34.22;28.04
54816;BME280;40715;55.752;37.884;2023-05-22T12:32:46;99635.22;;;34.22;27.70
54816;BME280;40715;55.752;37.884;2023-05-22T12:35:15;99636.25;;;34.21;27.67
54816;BME280;40715;55.752;37.884;2023-05-22T12:37:49;99627.00;;;34.22;27.89
54816;BME280;40715;55.752;37.884;2023-05-22T12:40:17;99627.16;;;34.20;27.81
54816;BME280;40715;55.752;37.884;2023-05-22T12:42:46;99630.09;;;34.19;27.95
54816;BME280;40715;55.752;37.884;2023-05-22T12:45:14;99629.25;;;34.18;27.83
54816;BME280;40715;55.752;37.884;2023-05-22T12:47:43;99624.81;;;34.17;27.59
54816;BME280;40715;55.752;37.884;2023-05-22T12:50:10;99618.13;;;34.20;27.85
54816;BME280;40715;55.752;37.884;2023-05-22T12:52:37;99616.44;;;34.19;27.75
54816;BME280;40715;55.752;37.884;2023-05-22T12:55:05;99616.63;;;34.17;27.77
54816;BME280;40715;55.752;37.884;2023-05-22T12:57:32;99604.16;;;34.15;27.63
54816;BME280;40715;55.752;37.884;2023-05-22T12:59:59;99612.47;;;34.21;27.42
54816;BME280;40715;55.752;37.884;2023-05-22T13:02:26;99608.03;;;34.20;27.68
54816;BME280;40715;55.752;37.884;2023-05-22T13:04:53;99605.97;;;34.22;27.69
54816;BME280;40715;55.752;37.884;2023-05-22T13:07:20;99605.97;;;34.22;27.32
54816;BME280;40715;55.752;37.884;2023-05-22T13:09:50;99606.81;;;34.23;27.43
54816;BME280;40715;55.752;37.884;2023-05-22T13:12:17;99610.41;;;34.23;27.62
54816;BME280;40715;55.752;37.884;2023-05-22T13:14:45;99602.41;;;34.22;27.43